sensor_id;sensor_type;location;lat;lon;timestamp;pressure;altitude;pressure_sealevel;temperature;humidity
26443;BME280;5563;52.296;6.806;2023-02-18T00:00:22;102068.88;;;8.52;87.63
26443;BME280;5563;52.296;6.806;2023-02-18T00:02:50;102057.94;;;8.41;87.60
26443;BME280;5563;52.296;6.806;2023-02-18T00:05:23;102049.53;;;8.33;87.96
26443;BME280;5563;52.296;6.806;2023-02-18T00:08:00;102042.44;;;8.33;88.01
26443;BME280;5563;52.296;6.806;2023-02-18T00:10:42;102056.00;;;8.44;88.06
26443;BME280;5563;52.296;6.806;2023-02-18T00:13:13;102074.19;;;8.52;88.37
26443;BME280;5563;52.296;6.806;2023-02-18T00:15:46;102080.38;;;8.52;88.31
26443;BME280;5563;52.296;6.806;2023-02-18T00:18:14;102068.88;;;8.52;88.83
26443;BME280;5563;52.296;6.806;2023-02-18T00:20:50;102039.34;;;8.41;88.66
26443;BME280;5563;52.296;6.806;2023-02-18T00:23:41;102044.63;;;8.42;88.93
26443;BME280;5563;52.296;6.806;2023-02-18T00:27:03;102069.75;;;8.52;88.63
26443;BME280;5563;52.296;6.806;2023-02-18T00:29:31;102047.28;;;8.42;89.15
26443;BME280;5563;52.296;6.806;2023-02-18T00:32:04;102028.97;;;8.36;89.39
26443;BME280;5563;52.296;6.806;2023-02-18T00:34:31;102026.16;;;8.39;89.36
26443;BME280;5563;52.296;6.806;2023-02-18T00:37:05;102018.53;;;8.33;89.56
26443;BME280;5563;52.296;6.806;2023-02-18T00:39:32;102058.25;;;8.52;89.51
26443;BME280;5563;52.296;6.806;2023-02-18T00:42:06;102049.41;;;8.51;89.61
26443;BME280;5563;52.296;6.806;2023-02-18T00:44:33;102020.84;;;8.39;89.41
26443;BME280;5563;52.296;6.806;2023-02-18T00:47:07;102010.63;;;8.32;89.67
26443;BME280;5563;52.296;6.806;2023-02-18T00:49:41;102013.13;;;8.35;89.66
26443;BME280;5563;52.296;6.806;2023-02-18T00:52:09;102021.88;;;8.37;89.39
26443;BME280;5563;52.296;6.806;2023-02-18T00:54:43;102039.91;;;8.47;89.66
26443;BME280;5563;52.296;6.806;2023-02-18T00:57:10;102040.75;;;8.48;89.92
26443;BME280;5563;52.296;6.806;2023-02-18T00:59:43;102005.53;;;8.27;89.81
26443;BME280;5563;52.296;6.806;2023-02-18T01:02:11;102036.28;;;8.48;89.74
26443;BME280;5563;52.296;6.806;2023-02-18T01:04:51;102012.03;;;8.39;89.65
26443;BME280;5563;52.296;6.806;2023-02-18T01:07:19;101987.66;;;8.31;89.60
26443;BME280;5563;52.296;6.806;2023-02-18T01:09:53;101984.81;;;8.34;89.71
26443;BME280;5563;52.296;6.806;2023-02-18T01:12:21;101976.31;;;8.27;89.80
26443;BME280;5563;52.296;6.806;2023-02-18T01:14:57;101964.81;;;8.27;89.82
26443;BME280;5563;52.296;6.806;2023-02-18T01:17:31;101973.56;;;8.29;89.77
26443;BME280;5563;52.296;6.806;2023-02-18T01:19:59;102014.94;;;8.50;89.50
26443;BME280;5563;52.296;6.806;2023-02-18T01:22:32;101996.91;;;8.39;89.78
26443;BME280;5563;52.296;6.806;2023-02-18T01:25:00;101998.47;;;8.43;89.69
26443;BME280;5563;52.296;6.806;2023-02-18T01:27:33;102006.84;;;8.53;89.83
26443;BME280;5563;52.296;6.806;2023-02-18T01:30:10;101974.56;;;8.43;89.83
26443;BME280;5563;52.296;6.806;2023-02-18T01:32:44;101989.69;;;8.58;89.79
26443;BME280;5563;52.296;6.806;2023-02-18T01:35:14;101960.59;;;8.40;89.78
26443;BME280;5563;52.296;6.806;2023-02-18T01:37:57;101957.16;;;8.38;89.85
26443;BME280;5563;52.296;6.806;2023-02-18T01:40:27;101997.59;;;8.60;89.79
26443;BME280;5563;52.296;6.806;2023-02-18T01:43:10;101971.31;;;8.54;90.11
26443;BME280;5563;52.296;6.806;2023-02-18T01:46:02;101959.03;;;8.51;89.91
26443;BME280;5563;52.296;6.806;2023-02-18T01:48:43;101962.75;;;8.64;89.94
26443;BME280;5563;52.296;6.806;2023-02-18T01:51:15;101958.81;;;8.56;90.08
26443;BME280;5563;52.296;6.806;2023-02-18T01:53:51;101960.00;;;8.66;89.79
26443;BME280;5563;52.296;6.806;2023-02-18T01:59:45;101958.63;;;8.74;89.98
26443;BME280;5563;52.296;6.806;2023-02-18T02:02:18;101954.09;;;8.77;89.98
26443;BME280;5563;52.296;6.806;2023-02-18T02:05:10;101917.06;;;8.58;90.20
26443;BME280;5563;52.296;6.806;2023-02-18T02:07:54;101913.28;;;8.62;90.09
26443;BME280;5563;52.296;6.806;2023-02-18T02:11:01;101914.72;;;8.67;90.36
26443;BME280;5563;52.296;6.806;2023-02-18T02:22:39;101919.78;;;8.88;90.39
26443;BME280;5563;52.296;6.806;2023-02-18T02:37:38;101880.47;;;8.93;90.42
26443;BME280;5563;52.296;6.806;2023-02-18T02:46:17;101865.25;;;8.81;90.43
26443;BME280;5563;52.296;6.806;2023-02-18T02:49:19;101861.47;;;8.85;90.65
26443;BME280;5563;52.296;6.806;2023-02-18T02:54:46;101853.16;;;8.75;90.39
26443;BME280;5563;52.296;6.806;2023-02-18T03:00:05;101838.31;;;8.71;90.20
26443;BME280;5563;52.296;6.806;2023-02-18T03:02:38;101878.00;;;8.90;90.51
26443;BME280;5563;52.296;6.806;2023-02-18T03:08:07;101832.84;;;8.74;90.25
26443;BME280;5563;52.296;6.806;2023-02-18T03:10:55;101828.19;;;8.78;90.15
26443;BME280;5563;52.296;6.806;2023-02-18T03:13:58;101803.84;;;8.69;90.27
26443;BME280;5563;52.296;6.806;2023-02-18T03:16:46;101827.47;;;8.90;90.53
26443;BME280;5563;52.296;6.806;2023-02-18T03:19:23;101794.06;;;8.70;90.20
26443;BME280;5563;52.296;6.806;2023-02-18T03:22:17;101792.75;;;8.77;90.29
26443;BME280;5563;52.296;6.806;2023-02-18T03:24:55;101799.72;;;8.80;90.58
26443;BME280;5563;52.296;6.806;2023-02-18T03:27:32;101800.97;;;8.88;90.46
26443;BME280;5563;52.296;6.806;2023-02-18T03:32:54;101791.56;;;8.83;90.37
26443;BME280;5563;52.296;6.806;2023-02-18T03:35:25;101782.22;;;8.76;90.41
26443;BME280;5563;52.296;6.806;2023-02-18T03:38:11;101766.47;;;8.73;90.74
26443;BME280;5563;52.296;6.806;2023-02-18T03:40:42;101799.25;;;8.87;90.50
26443;BME280;5563;52.296;6.806;2023-02-18T03:43:16;101775.19;;;8.74;90.84
26443;BME280;5563;52.296;6.806;2023-02-18T03:45:43;101767.28;;;8.73;90.81
26443;BME280;5563;52.296;6.806;2023-02-18T03:48:19;101770.72;;;8.75;90.58
26443;BME280;5563;52.296;6.806;2023-02-18T03:50:47;101775.13;;;8.76;90.78
26443;BME280;5563;52.296;6.806;2023-02-18T03:53:20;101776.28;;;8.86;90.61
26443;BME280;5563;52.296;6.806;2023-02-18T03:55:48;101778.94;;;8.86;90.60
26443;BME280;5563;52.296;6.806;2023-02-18T03:58:21;101741.00;;;8.68;90.49
26443;BME280;5563;52.296;6.806;2023-02-18T04:01:12;101746.88;;;8.73;90.81
26443;BME280;5563;52.296;6.806;2023-02-18T04:03:50;101736.34;;;8.72;90.76
26443;BME280;5563;52.296;6.806;2023-02-18T04:06:28;101743.88;;;8.80;90.65
26443;BME280;5563;52.296;6.806;2023-02-18T04:09:05;101721.25;;;8.73;90.73
26443;BME280;5563;52.296;6.806;2023-02-18T04:11:41;101748.38;;;8.93;90.78
26443;BME280;5563;52.296;6.806;2023-02-18T04:14:12;101709.66;;;8.73;91.01
26443;BME280;5563;52.296;6.806;2023-02-18T04:16:45;101722.50;;;8.81;91.24
26443;BME280;5563;52.296;6.806;2023-02-18T04:22:38;101733.19;;;8.95;91.38
26443;BME280;5563;52.296;6.806;2023-02-18T04:25:05;101732.31;;;8.95;91.41
26443;BME280;5563;52.296;6.806;2023-02-18T04:27:40;101702.06;;;8.82;91.63
26443;BME280;5563;52.296;6.806;2023-02-18T04:30:08;101693.63;;;8.75;91.82
26443;BME280;5563;52.296;6.806;2023-02-18T04:32:46;101693.44;;;8.78;91.70
26443;BME280;5563;52.296;6.806;2023-02-18T04:35:17;101680.91;;;8.80;92.15
26443;BME280;5563;52.296;6.806;2023-02-18T04:37:50;101708.03;;;9.01;92.02
26443;BME280;5563;52.296;6.806;2023-02-18T04:40:18;101701.47;;;8.92;92.27
26443;BME280;5563;52.296;6.806;2023-02-18T04:43:13;101677.13;;;8.84;92.38
26443;BME280;5563;52.296;6.806;2023-02-18T04:45:49;101666.59;;;8.83;92.55
26443;BME280;5563;52.296;6.806;2023-02-18T04:48:26;101684.53;;;8.93;92.42
26443;BME280;5563;52.296;6.806;2023-02-18T04:51:00;101665.34;;;8.88;92.57
26443;BME280;5563;52.296;6.806;2023-02-18T04:53:30;101682.34;;;9.00;92.83
26443;BME280;5563;52.296;6.806;2023-02-18T04:55:57;101695.88;;;9.11;92.94
26443;BME280;5563;52.296;6.806;2023-02-18T04:58:32;101652.72;;;8.92;93.22
26443;BME280;5563;52.296;6.806;2023-02-18T05:01:00;101656.25;;;9.06;93.04
26443;BME280;5563;52.296;6.806;2023-02-18T05:03:41;101647.63;;;9.03;93.00
26443;BME280;5563;52.296;6.806;2023-02-18T05:06:22;101640.66;;;9.00;93.08
26443;BME280;5563;52.296;6.806;2023-02-18T05:08:55;101641.13;;;9.07;92.97
26443;BME280;5563;52.296;6.806;2023-02-18T05:11:25;101657.19;;;9.19;93.66
26443;BME280;5563;52.296;6.806;2023-02-18T05:13:59;101628.41;;;9.12;93.33
26443;BME280;5563;52.296;6.806;2023-02-18T05:16:27;101644.00;;;9.18;93.49
26443;BME280;5563;52.296;6.806;2023-02-18T05:19:00;101645.31;;;9.25;93.55
26443;BME280;5563;52.296;6.806;2023-02-18T05:21:28;101595.63;;;9.11;93.87
26443;BME280;5563;52.296;6.806;2023-02-18T05:24:06;101601.31;;;9.19;93.69
26443;BME280;5563;52.296;6.806;2023-02-18T05:26:34;101585.66;;;9.15;93.67
26443;BME280;5563;52.296;6.806;2023-02-18T05:29:08;101593.16;;;9.22;93.72
26443;BME280;5563;52.296;6.806;2023-02-18T05:31:42;101578.25;;;9.20;93.75
26443;BME280;5563;52.296;6.806;2023-02-18T05:34:17;101576.34;;;9.22;93.76
26443;BME280;5563;52.296;6.806;2023-02-18T05:37:09;101586.41;;;9.31;93.54
26443;BME280;5563;52.296;6.806;2023-02-18T05:39:38;101572.72;;;9.23;93.91
26443;BME280;5563;52.296;6.806;2023-02-18T05:42:28;101562.16;;;9.21;93.78
26443;BME280;5563;52.296;6.806;2023-02-18T05:44:58;101557.63;;;9.23;93.90
26443;BME280;5563;52.296;6.806;2023-02-18T05:47:36;101541.75;;;9.22;93.88
26443;BME280;5563;52.296;6.806;2023-02-18T05:50:05;101571.53;;;9.41;94.39
26443;BME280;5563;52.296;6.806;2023-02-18T05:52:38;101572.09;;;9.46;94.18
26443;BME280;5563;52.296;6.806;2023-02-18T05:55:08;101565.94;;;9.45;94.12
26443;BME280;5563;52.296;6.806;2023-02-18T05:57:41;101560.13;;;9.39;94.31
26443;BME280;5563;52.296;6.806;2023-02-18T06:00:09;101544.66;;;9.31;94.15
26443;BME280;5563;52.296;6.806;2023-02-18T06:02:45;101556.13;;;9.46;94.32
26443;BME280;5563;52.296;6.806;2023-02-18T06:05:19;101558.69;;;9.47;94.49
26443;BME280;5563;52.296;6.806;2023-02-18T06:07:53;101554.44;;;9.45;94.27
26443;BME280;5563;52.296;6.806;2023-02-18T06:10:27;101546.56;;;9.43;94.52
26443;BME280;5563;52.296;6.806;2023-02-18T06:13:00;101570.63;;;9.54;94.53
26443;BME280;5563;52.296;6.806;2023-02-18T06:15:29;101568.94;;;9.53;94.46
26443;BME280;5563;52.296;6.806;2023-02-18T06:18:04;101548.13;;;9.46;94.30
26443;BME280;5563;52.296;6.806;2023-02-18T06:20:32;101530.00;;;9.38;94.49
26443;BME280;5563;52.296;6.806;2023-02-18T06:23:08;101554.78;;;9.53;94.45
26443;BME280;5563;52.296;6.806;2023-02-18T06:25:41;101541.13;;;9.45;94.54
26443;BME280;5563;52.296;6.806;2023-02-18T06:28:09;101575.03;;;9.55;94.44
26443;BME280;5563;52.296;6.806;2023-02-18T06:30:44;101542.91;;;9.44;94.56
26443;BME280;5563;52.296;6.806;2023-02-18T06:33:11;101529.81;;;9.41;94.50
26443;BME280;5563;52.296;6.806;2023-02-18T06:35:38;101546.22;;;9.48;94.48
26443;BME280;5563;52.296;6.806;2023-02-18T06:38:12;101545.47;;;9.46;94.61
26443;BME280;5563;52.296;6.806;2023-02-18T06:40:51;101566.06;;;9.56;94.54
26443;BME280;5563;52.296;6.806;2023-02-18T06:43:25;101569.59;;;9.57;94.54
26443;BME280;5563;52.296;6.806;2023-02-18T06:45:53;101548.56;;;9.40;94.67
26443;BME280;5563;52.296;6.806;2023-02-18T06:48:26;101571.50;;;9.55;94.63
26443;BME280;5563;52.296;6.806;2023-02-18T06:50:53;101567.03;;;9.55;94.44
26443;BME280;5563;52.296;6.806;2023-02-18T06:53:28;101548.56;;;9.40;94.61
26443;BME280;5563;52.296;6.806;2023-02-18T06:55:55;101547.47;;;9.42;94.50
26443;BME280;5563;52.296;6.806;2023-02-18T06:58:28;101562.88;;;9.51;94.28
26443;BME280;5563;52.296;6.806;2023-02-18T07:00:56;101561.66;;;9.43;94.52
26443;BME280;5563;52.296;6.806;2023-02-18T07:03:31;101536.19;;;9.39;94.30
26443;BME280;5563;52.296;6.806;2023-02-18T07:06:11;101549.75;;;9.48;94.52
26443;BME280;5563;52.296;6.806;2023-02-18T07:08:44;101539.91;;;9.36;94.61
26443;BME280;5563;52.296;6.806;2023-02-18T07:11:14;101533.84;;;9.34;94.54
26443;BME280;5563;52.296;6.806;2023-02-18T07:13:48;101531.28;;;9.33;94.58
26443;BME280;5563;52.296;6.806;2023-02-18T07:16:15;101549.97;;;9.45;94.60
26443;BME280;5563;52.296;6.806;2023-02-18T07:18:49;101535.25;;;9.40;94.56
26443;BME280;5563;52.296;6.806;2023-02-18T07:21:16;101537.25;;;9.36;94.57
26443;BME280;5563;52.296;6.806;2023-02-18T07:23:49;101536.94;;;9.41;94.67
26443;BME280;5563;52.296;6.806;2023-02-18T07:26:16;101518.25;;;9.28;94.47
26443;BME280;5563;52.296;6.806;2023-02-18T07:28:50;101530.22;;;9.35;94.47
26443;BME280;5563;52.296;6.806;2023-02-18T07:31:25;101523.56;;;9.28;94.23
26443;BME280;5563;52.296;6.806;2023-02-18T07:34:05;101546.63;;;9.42;94.25
26443;BME280;5563;52.296;6.806;2023-02-18T07:36:38;101527.75;;;9.32;94.21
26443;BME280;5563;52.296;6.806;2023-02-18T07:39:06;101533.94;;;9.33;94.35
26443;BME280;5563;52.296;6.806;2023-02-18T07:41:40;101545.13;;;9.38;94.19
26443;BME280;5563;52.296;6.806;2023-02-18T07:44:07;101548.06;;;9.33;93.98
26443;BME280;5563;52.296;6.806;2023-02-18T07:46:54;101541.91;;;9.33;93.99
26443;BME280;5563;52.296;6.806;2023-02-18T07:49:22;101539.34;;;9.31;93.77
26443;BME280;5563;52.296;6.806;2023-02-18T07:51:56;101548.44;;;9.41;93.73
26443;BME280;5563;52.296;6.806;2023-02-18T07:54:26;101560.03;;;9.40;93.79
26443;BME280;5563;52.296;6.806;2023-02-18T07:57:00;101553.00;;;9.39;93.60
26443;BME280;5563;52.296;6.806;2023-02-18T07:59:32;101525.69;;;9.23;93.68
26443;BME280;5563;52.296;6.806;2023-02-18T08:02:06;101533.47;;;9.26;93.94
26443;BME280;5563;52.296;6.806;2023-02-18T08:04:33;101518.56;;;9.24;93.66
26443;BME280;5563;52.296;6.806;2023-02-18T08:10:45;101532.41;;;9.29;93.51
26443;BME280;5563;52.296;6.806;2023-02-18T08:13:18;101544.75;;;9.30;93.62
26443;BME280;5563;52.296;6.806;2023-02-18T08:15:46;101534.97;;;9.30;93.45
26443;BME280;5563;52.296;6.806;2023-02-18T08:18:21;101523.13;;;9.22;93.44
26443;BME280;5563;52.296;6.806;2023-02-18T08:20:49;101530.69;;;9.28;93.58
26443;BME280;5563;52.296;6.806;2023-02-18T08:23:23;101542.38;;;9.39;93.59
26443;BME280;5563;52.296;6.806;2023-02-18T08:25:54;101525.47;;;9.26;93.43
26443;BME280;5563;52.296;6.806;2023-02-18T08:28:29;101543.41;;;9.37;93.28
26443;BME280;5563;52.296;6.806;2023-02-18T08:31:03;101547.69;;;9.39;93.33
26443;BME280;5563;52.296;6.806;2023-02-18T08:33:30;101520.47;;;9.22;93.38
26443;BME280;5563;52.296;6.806;2023-02-18T08:36:06;101521.13;;;9.25;93.23
26443;BME280;5563;52.296;6.806;2023-02-18T08:38:40;101550.16;;;9.42;93.43
26443;BME280;5563;52.296;6.806;2023-02-18T08:41:08;101542.47;;;9.38;93.35
26443;BME280;5563;52.296;6.806;2023-02-18T08:43:36;101537.63;;;9.30;93.28
26443;BME280;5563;52.296;6.806;2023-02-18T08:46:10;101554.91;;;9.37;93.34
26443;BME280;5563;52.296;6.806;2023-02-18T08:49:00;101542.31;;;9.27;93.62
26443;BME280;5563;52.296;6.806;2023-02-18T08:51:36;101526.00;;;9.19;93.48
26443;BME280;5563;52.296;6.806;2023-02-18T08:54:10;101511.06;;;9.16;93.49
26443;BME280;5563;52.296;6.806;2023-02-18T08:56:43;101543.34;;;9.24;93.50
26443;BME280;5563;52.296;6.806;2023-02-18T08:59:10;101518.09;;;9.17;93.49
26443;BME280;5563;52.296;6.806;2023-02-18T09:01:53;101537.63;;;9.30;93.68
26443;BME280;5563;52.296;6.806;2023-02-18T09:04:21;101521.41;;;9.21;93.43
26443;BME280;5563;52.296;6.806;2023-02-18T09:06:55;101523.41;;;9.17;93.41
26443;BME280;5563;52.296;6.806;2023-02-18T09:09:28;101526.72;;;9.21;93.44
26443;BME280;5563;52.296;6.806;2023-02-18T09:12:05;101509.56;;;9.12;93.27
26443;BME280;5563;52.296;6.806;2023-02-18T09:14:34;101511.34;;;9.12;92.98
26443;BME280;5563;52.296;6.806;2023-02-18T09:17:10;101525.34;;;9.15;92.57
26443;BME280;5563;52.296;6.806;2023-02-18T09:19:40;101514.97;;;9.11;92.11
26443;BME280;5563;52.296;6.806;2023-02-18T09:22:16;101543.09;;;9.15;91.98
26443;BME280;5563;52.296;6.806;2023-02-18T09:24:43;101524.19;;;9.05;92.02
26443;BME280;5563;52.296;6.806;2023-02-18T09:27:16;101517.19;;;9.04;91.83
26443;BME280;5563;52.296;6.806;2023-02-18T09:33:22;101528.28;;;9.11;92.05
26443;BME280;5563;52.296;6.806;2023-02-18T09:39:40;101532.47;;;9.01;92.23
26443;BME280;5563;52.296;6.806;2023-02-18T09:42:15;101555.44;;;9.02;92.48
26443;BME280;5563;52.296;6.806;2023-02-18T09:44:57;101536.59;;;8.92;92.45
26443;BME280;5563;52.296;6.806;2023-02-18T09:47:34;101553.38;;;8.93;92.59
26443;BME280;5563;52.296;6.806;2023-02-18T09:50:25;101575.31;;;8.96;92.87
26443;BME280;5563;52.296;6.806;2023-02-18T09:52:58;101547.28;;;8.77;92.62
26443;BME280;5563;52.296;6.806;2023-02-18T09:55:38;101546.63;;;8.73;92.89
26443;BME280;5563;52.296;6.806;2023-02-18T09:58:19;101551.84;;;8.74;93.07
26443;BME280;5563;52.296;6.806;2023-02-18T10:01:05;101561.00;;;8.70;93.21
26443;BME280;5563;52.296;6.806;2023-02-18T10:04:42;101560.88;;;8.72;93.20
26443;BME280;5563;52.296;6.806;2023-02-18T10:07:26;101551.28;;;8.55;93.36
26443;BME280;5563;52.296;6.806;2023-02-18T10:10:19;101555.66;;;8.56;93.66
26443;BME280;5563;52.296;6.806;2023-02-18T10:12:54;101560.03;;;8.57;93.74
26443;BME280;5563;52.296;6.806;2023-02-18T10:15:30;101564.31;;;8.60;93.53
26443;BME280;5563;52.296;6.806;2023-02-18T10:18:45;101563.81;;;8.53;93.58
26443;BME280;5563;52.296;6.806;2023-02-18T10:21:23;101558.13;;;8.45;93.56
26443;BME280;5563;52.296;6.806;2023-02-18T10:27:29;101555.16;;;8.50;93.83
26443;BME280;5563;52.296;6.806;2023-02-18T10:48:12;101594.75;;;8.54;94.10
26443;BME280;5563;52.296;6.806;2023-02-18T10:51:29;101596.97;;;8.62;93.93
26443;BME280;5563;52.296;6.806;2023-02-18T10:54:05;101611.59;;;8.69;94.18
26443;BME280;5563;52.296;6.806;2023-02-18T11:00:21;101584.91;;;8.56;94.09
26443;BME280;5563;52.296;6.806;2023-02-18T11:09:47;101587.16;;;8.62;94.02
26443;BME280;5563;52.296;6.806;2023-02-18T11:12:29;101583.84;;;8.59;94.04
26443;BME280;5563;52.296;6.806;2023-02-18T11:19:38;101569.91;;;8.69;93.97
26443;BME280;5563;52.296;6.806;2023-02-18T11:22:31;101570.66;;;8.71;93.72
26443;BME280;5563;52.296;6.806;2023-02-18T11:28:52;101561.75;;;8.87;93.42
26443;BME280;5563;52.296;6.806;2023-02-18T11:35:19;101569.97;;;8.96;93.17
26443;BME280;5563;52.296;6.806;2023-02-18T11:38:22;101553.19;;;8.96;92.95
26443;BME280;5563;52.296;6.806;2023-02-18T11:41:14;101548.22;;;9.04;92.83
26443;BME280;5563;52.296;6.806;2023-02-18T11:43:50;101558.97;;;9.02;92.57
26443;BME280;5563;52.296;6.806;2023-02-18T11:46:27;101577.19;;;9.08;92.68
26443;BME280;5563;52.296;6.806;2023-02-18T11:49:30;101578.34;;;9.04;92.97
26443;BME280;5563;52.296;6.806;2023-02-18T11:52:34;101601.63;;;9.15;92.76
26443;BME280;5563;52.296;6.806;2023-02-18T11:55:35;101558.13;;;9.02;92.70
26443;BME280;5563;52.296;6.806;2023-02-18T11:58:16;101585.16;;;9.08;92.85
26443;BME280;5563;52.296;6.806;2023-02-18T12:00:46;101582.50;;;9.08;92.83
26443;BME280;5563;52.296;6.806;2023-02-18T12:03:47;101581.78;;;9.06;92.50
26443;BME280;5563;52.296;6.806;2023-02-18T12:06:53;101580.81;;;9.07;92.62
26443;BME280;5563;52.296;6.806;2023-02-18T12:09:41;101608.47;;;9.19;92.74
26443;BME280;5563;52.296;6.806;2023-02-18T12:12:25;101573.88;;;9.05;92.79
26443;BME280;5563;52.296;6.806;2023-02-18T12:14:59;101571.22;;;9.05;92.72
26443;BME280;5563;52.296;6.806;2023-02-18T12:17:57;101579.78;;;9.10;92.60
26443;BME280;5563;52.296;6.806;2023-02-18T12:24:47;101590.31;;;9.25;92.37
26443;BME280;5563;52.296;6.806;2023-02-18T12:27:48;101575.78;;;9.17;92.62
26443;BME280;5563;52.296;6.806;2023-02-18T12:37:04;101575.44;;;9.35;92.20
26443;BME280;5563;52.296;6.806;2023-02-18T12:46:33;101592.25;;;9.50;91.64
26443;BME280;5563;52.296;6.806;2023-02-18T12:52:25;101586.81;;;9.51;91.65
26443;BME280;5563;52.296;6.806;2023-02-18T12:55:29;101617.59;;;9.69;91.49
26443;BME280;5563;52.296;6.806;2023-02-18T12:58:18;101626.13;;;9.74;91.47
26443;BME280;5563;52.296;6.806;2023-02-18T13:01:14;101615.09;;;9.80;91.71
26443;BME280;5563;52.296;6.806;2023-02-18T13:14:19;101599.50;;;10.01;90.46
26443;BME280;5563;52.296;6.806;2023-02-18T13:16:56;101594.16;;;10.01;89.88
26443;BME280;5563;52.296;6.806;2023-02-18T13:20:12;101594.56;;;10.09;89.68
26443;BME280;5563;52.296;6.806;2023-02-18T13:22:50;101592.59;;;10.11;89.20
26443;BME280;5563;52.296;6.806;2023-02-18T13:25:28;101595.94;;;10.15;89.08
26443;BME280;5563;52.296;6.806;2023-02-18T13:28:16;101603.09;;;10.14;88.10
26443;BME280;5563;52.296;6.806;2023-02-18T13:36:35;101621.34;;;10.33;87.68
26443;BME280;5563;52.296;6.806;2023-02-18T13:39:12;101615.38;;;10.29;87.45
26443;BME280;5563;52.296;6.806;2023-02-18T13:45:03;101621.81;;;10.39;86.81
26443;BME280;5563;52.296;6.806;2023-02-18T13:47:44;101612.84;;;10.40;86.77
26443;BME280;5563;52.296;6.806;2023-02-18T13:55:59;101600.91;;;10.46;86.02
26443;BME280;5563;52.296;6.806;2023-02-18T13:58:41;101616.56;;;10.50;85.37
26443;BME280;5563;52.296;6.806;2023-02-18T14:21:17;101582.47;;;10.43;84.94
26443;BME280;5563;52.296;6.806;2023-02-18T14:23:54;101618.72;;;10.58;84.64
26443;BME280;5563;52.296;6.806;2023-02-18T14:26:42;101623.31;;;10.56;84.40
26443;BME280;5563;52.296;6.806;2023-02-18T14:29:26;101624.28;;;10.55;84.77
26443;BME280;5563;52.296;6.806;2023-02-18T14:32:09;101617.97;;;10.56;84.75
26443;BME280;5563;52.296;6.806;2023-02-18T14:43:27;101634.31;;;10.64;83.30
26443;BME280;5563;52.296;6.806;2023-02-18T14:46:20;101620.97;;;10.51;83.65
26443;BME280;5563;52.296;6.806;2023-02-18T14:51:44;101648.69;;;10.61;83.22
26443;BME280;5563;52.296;6.806;2023-02-18T14:54:19;101623.81;;;10.48;83.25
26443;BME280;5563;52.296;6.806;2023-02-18T14:57:06;101615.94;;;10.47;83.41
26443;BME280;5563;52.296;6.806;2023-02-18T14:59:39;101627.69;;;10.44;83.70
26443;BME280;5563;52.296;6.806;2023-02-18T15:02:28;101624.38;;;10.41;83.70
26443;BME280;5563;52.296;6.806;2023-02-18T15:05:14;101634.47;;;10.48;83.50
26443;BME280;5563;52.296;6.806;2023-02-18T15:08:03;101628.63;;;10.43;83.44
26443;BME280;5563;52.296;6.806;2023-02-18T15:10:42;101634.81;;;10.44;83.21
26443;BME280;5563;52.296;6.806;2023-02-18T15:13:21;101632.47;;;10.39;83.48
26443;BME280;5563;52.296;6.806;2023-02-18T15:15:52;101649.97;;;10.56;82.96
26443;BME280;5563;52.296;6.806;2023-02-18T15:18:41;101661.59;;;10.55;82.68
26443;BME280;5563;52.296;6.806;2023-02-18T15:21:29;101664.41;;;10.66;81.79
26443;BME280;5563;52.296;6.806;2023-02-18T15:24:33;101649.22;;;10.54;81.55
26443;BME280;5563;52.296;6.806;2023-02-18T15:27:16;101642.28;;;10.51;81.93
26443;BME280;5563;52.296;6.806;2023-02-18T15:29:48;101655.19;;;10.57;81.71
26443;BME280;5563;52.296;6.806;2023-02-18T15:32:25;101639.94;;;10.47;81.52
26443;BME280;5563;52.296;6.806;2023-02-18T15:34:58;101649.44;;;10.51;81.57
26443;BME280;5563;52.296;6.806;2023-02-18T15:37:36;101673.13;;;10.68;81.62
26443;BME280;5563;52.296;6.806;2023-02-18T15:40:17;101658.94;;;10.55;80.78
26443;BME280;5563;52.296;6.806;2023-02-18T15:42:51;101680.31;;;10.67;81.25
26443;BME280;5563;52.296;6.806;2023-02-18T15:45:42;101651.06;;;10.53;81.15
26443;BME280;5563;52.296;6.806;2023-02-18T15:48:42;101673.69;;;10.60;81.46
26443;BME280;5563;52.296;6.806;2023-02-18T15:51:20;101666.06;;;10.54;81.40
26443;BME280;5563;52.296;6.806;2023-02-18T15:53:51;101660.22;;;10.49;81.47
26443;BME280;5563;52.296;6.806;2023-02-18T15:56:29;101689.69;;;10.60;81.28
26443;BME280;5563;52.296;6.806;2023-02-18T16:01:42;101661.69;;;10.41;80.52
26443;BME280;5563;52.296;6.806;2023-02-18T16:04:14;101668.06;;;10.38;80.33
26443;BME280;5563;52.296;6.806;2023-02-18T16:06:51;101667.31;;;10.36;80.75
26443;BME280;5563;52.296;6.806;2023-02-18T16:09:30;101698.28;;;10.51;80.74
26443;BME280;5563;52.296;6.806;2023-02-18T16:12:04;101682.03;;;10.42;80.54
26443;BME280;5563;52.296;6.806;2023-02-18T16:14:47;101680.44;;;10.39;80.65
26443;BME280;5563;52.296;6.806;2023-02-18T16:17:18;101673.06;;;10.30;80.16
26443;BME280;5563;52.296;6.806;2023-02-18T16:20:15;101705.94;;;10.43;80.85
26443;BME280;5563;52.296;6.806;2023-02-18T16:22:46;101666.50;;;10.22;80.97
26443;BME280;5563;52.296;6.806;2023-02-18T16:25:25;101687.22;;;10.31;80.36
26443;BME280;5563;52.296;6.806;2023-02-18T16:28:03;101699.72;;;10.30;80.49
26443;BME280;5563;52.296;6.806;2023-02-18T16:30:37;101683.25;;;10.24;80.75
26443;BME280;5563;52.296;6.806;2023-02-18T16:33:13;101673.97;;;10.17;80.60
26443;BME280;5563;52.296;6.806;2023-02-18T16:35:47;101681.56;;;10.23;80.52
26443;BME280;5563;52.296;6.806;2023-02-18T16:38:18;101679.94;;;10.20;81.06
26443;BME280;5563;52.296;6.806;2023-02-18T16:40:53;101674.38;;;10.11;80.75
26443;BME280;5563;52.296;6.806;2023-02-18T16:43:22;101674.47;;;10.09;80.65
26443;BME280;5563;52.296;6.806;2023-02-18T16:45:58;101682.91;;;10.16;80.78
26443;BME280;5563;52.296;6.806;2023-02-18T16:48:38;101702.13;;;10.21;81.12
26443;BME280;5563;52.296;6.806;2023-02-18T16:51:16;101684.34;;;10.07;80.98
26443;BME280;5563;52.296;6.806;2023-02-18T16:53:44;101725.63;;;10.28;80.45
26443;BME280;5563;52.296;6.806;2023-02-18T16:56:24;101686.84;;;10.10;80.14
26443;BME280;5563;52.296;6.806;2023-02-18T16:58:58;101687.81;;;10.09;80.54
26443;BME280;5563;52.296;6.806;2023-02-18T17:01:33;101692.81;;;10.14;80.52